Data for 05/15/2009

Time Sea-Level Adjusted Pressure Absolute Pressure Temperature Relative Humidity Dew Point   
(mb) (inHg) (mb) (inHg) (C) (F) (%) (C) (F)
00:05 1017 30.03 846 24.98 5.9 42.6 84 3.4 38.1
00:10 1017 30.03 846 24.98 5.9 42.6 81 2.8 37.1
00:15 1017 30.03 846 24.98 6 42.7 81 2.9 37.2
00:20 1017 30.03 846 24.98 5.9 42.7 81 2.9 37.3
00:25 1017 30.03 847 25.01 5.9 42.6 79 2.5 36.5
00:30 1017 30.03 847 25.01 5.9 42.7 77 2.3 36.1
00:35 1017 30.03 847 25.01 5.9 42.6 77 2.2 35.9
00:40 1018 30.06 847 25.01 5.8 42.4 78 2.3 36.2
00:45 1018 30.06 847 25.01 5.7 42.3 75 1.7 35.1
00:50 1018 30.06 847 25.01 5.6 42.1 78 2 35.6
00:55 1018 30.06 847 25.01 5.4 41.7 79 2.1 35.7
01:00 1018 30.06 847 25.01 5.2 41.4 78 1.7 35
01:05 1018 30.06 847 25.01 5.3 41.5 75 1.2 34.2
01:10 1018 30.06 847 25.01 5.2 41.4 77 1.5 34.6
01:15 1018 30.06 848 25.04 5.1 41.2 79 1.7 35.1
01:20 1018 30.06 848 25.04 4.9 40.9 78 1.4 34.5
01:25 1018 30.06 848 25.04 4.9 40.7 76 0.9 33.6
01:30 1019 30.09 848 25.04 4.8 40.6 74 0.5 32.9
01:35 1019 30.09 848 25.04 4.8 40.6 72 0.1 32.2
01:40 1019 30.09 848 25.04 4.7 40.4 73 0.2 32.4
01:45 1019 30.09 848 25.04 4.5 40.2 75 0.5 32.9
01:50 1019 30.09 848 25.04 4.5 40 77 0.7 33.3
01:55 1019 30.09 848 25.04 4.4 39.9 78 0.8 33.5
02:00 1019 30.09 848 25.04 4.4 39.9 76 0.5 33
02:05 1019 30.09 848 25.04 4.3 39.7 78 0.8 33.5
02:10 1019 30.09 848 25.04 4.3 39.7 77 0.5 32.9
02:15 1019 30.09 848 25.04 4.1 39.3 80 0.9 33.5
02:20 1019 30.09 848 25.04 3.8 38.8 82 0.9 33.6
02:25 1019 30.09 848 25.04 3.6 38.5 79 0.3 32.5
02:30 1019 30.09 848 25.04 3.6 38.5 78 0.2 32.3
02:35 1019 30.09 848 25.04 3.7 38.7 78 0.3 32.5
02:40 1019 30.09 849 25.07 3.8 38.9 76 0.1 32.1
02:45 1019 30.09 849 25.07 3.8 38.9 77 0.2 32.4
02:50 1019 30.09 849 25.07 3.8 38.9 77 0.1 32.3
02:55 1020 30.12 849 25.07 3.9 38.9 77 0.1 32.2
03:00 1020 30.12 849 25.07 3.9 39.1 76 0.1 32.2
03:05 1020 30.12 849 25.07 4 39.2 77 0.3 32.5
03:10 1020 30.12 849 25.07 4.1 39.4 75 0 32
03:15 1020 30.12 849 25.07 4.1 39.4 76 0.3 32.5
03:20 1020 30.12 849 25.07 4.2 39.6 76 0.4 32.7
03:25 1020 30.12 849 25.07 4.3 39.8 76 0.5 32.8
03:30 1020 30.12 849 25.07 4.4 40 73 0.1 32.1
03:35 1020 30.12 849 25.07 4.6 40.2 74 0.4 32.7
03:40 1020 30.12 849 25.07 4.3 39.8 76 0.4 32.7
03:45 1020 30.12 849 25.07 4.2 39.5 77 0.5 32.8
03:50 1020 30.12 849 25.07 4 39.3 77 0.3 32.5
03:55 1020 30.12 849 25.07 4.1 39.5 77 0.4 32.8
04:00 1020 30.12 849 25.07 4.1 39.5 75 0.1 32.1
04:05 1020 30.12 849 25.07 4.3 39.7 72 -0.3 31.5
04:10 1020 30.12 849 25.07 4.3 39.8 75 0.2 32.4
04:15 1020 30.12 849 25.07 4.3 39.7 74 0 32.1
04:20 1020 30.12 849 25.07 4.4 39.9 74 0.1 32.2
04:25 1020 30.12 849 25.07 4.3 39.7 72 -0.2 31.6
04:30 1020 30.12 849 25.07 4.5 40.1 70 -0.5 31
04:35 1020 30.12 850 25.1 4.4 39.9 75 0.3 32.5
04:40 1020 30.12 850 25.1 4.1 39.3 78 0.6 33
04:45 1020 30.12 850 25.1 4 39.1 77 0.2 32.4
04:50 1021 30.15 850 25.1 4 39.1 77 0.3 32.6
04:55 1021 30.15 850 25.1 4.1 39.3 76 0.3 32.5
05:00 1021 30.15 850 25.1 4.3 39.8 75 0.3 32.6
05:05 1021 30.15 850 25.1 4.4 39.9 77 0.7 33.3
05:10 1021 30.15 850 25.1 4.4 39.9 74 0.2 32.3
05:15 1021 30.15 850 25.1 4.5 40 77 0.8 33.5
05:20 1021 30.15 850 25.1 4.4 39.9 72 -0.2 31.7
05:25 1021 30.15 850 25.1 4.5 40.1 71 -0.4 31.3
05:30 1021 30.15 850 25.1 4.6 40.2 72 -0.1 31.8
05:35 1021 30.15 850 25.1 4.5 40.1 71 -0.2 31.6
05:40 1021 30.15 850 25.1 4.1 39.3 80 1 33.7
05:45 1021 30.15 850 25.1 3.5 38.3 84 1 33.8
05:50 1021 30.15 850 25.1 3.3 38 81 0.3 32.6
05:55 1021 30.15 850 25.1 3.5 38.3 79 0.3 32.5
06:00 1021 30.15 850 25.1 3.5 38.3 81 0.5 33
06:05 1021 30.15 850 25.1 3.5 38.2 81 0.5 32.8
06:10 1021 30.15 850 25.1 3.5 38.2 81 0.5 32.8
06:15 1021 30.15 850 25.1 3.3 38 80 0.2 32.4
06:20 1021 30.15 850 25.1 3.4 38.2 79 0.1 32.1
06:25 1021 30.15 850 25.1 3.8 38.8 75 -0.3 31.5
06:30 1021 30.15 850 25.1 3.9 39 75 -0.1 31.8
06:35 1021 30.15 851 25.13 3.8 38.9 76 0.1 32.1
06:40 1021 30.15 851 25.13 3.9 39 76 0 32
06:45 1021 30.15 851 25.13 4.1 39.3 75 -0 31.9
06:50 1022 30.18 851 25.13 4.2 39.6 75 0.1 32.1
06:55 1022 30.18 851 25.13 4.4 39.9 72 -0.2 31.7
07:00 1022 30.18 851 25.13 4.4 40 69 -0.7 30.8
07:05 1022 30.18 851 25.13 4.8 40.6 69 -0.5 31.2
07:10 1022 30.18 851 25.13 5.1 41.1 71 0.2 32.3
07:15 1022 30.18 851 25.13 5.1 41.2 71 0.3 32.6
07:20 1022 30.18 851 25.13 5 41 74 0.7 33.2
07:25 1022 30.18 851 25.13 4.7 40.5 74 0.5 32.8
07:30 1022 30.18 851 25.13 5 40.9 71 0.2 32.4
07:35 1022 30.18 851 25.13 5.2 41.4 69 0.1 32.1
07:40 1022 30.18 851 25.13 5.9 42.6 62 -0.8 30.6
07:45 1022 30.18 851 25.13 6 42.8 65 -0.1 31.8
07:50 1022 30.18 851 25.13 6.2 43.2 62 -0.5 31.1
07:55 1022 30.18 851 25.13 6.3 43.3 64 -0.1 31.9
08:00 1022 30.18 851 25.13 6.2 43.2 64 -0 32
08:05 1022 30.18 851 25.13 6.6 43.8 62 -0.1 31.7
08:10 1022 30.18 851 25.13 6.7 44.1 62 -0.1 31.9
08:15 1022 30.18 851 25.13 6.9 44.4 60 -0.3 31.5
08:20 1022 30.18 851 25.13 6.7 44.1 59 -0.6 30.9
08:25 1022 30.18 851 25.13 7.3 45.1 57 -0.6 30.9
08:30 1022 30.18 851 25.13 7.6 45.6 56 -0.5 31
08:35 1022 30.18 851 25.13 7.9 46.1 54 -0.8 30.6
08:40 1022 30.18 851 25.13 8.2 46.8 51 -1.3 29.7
08:45 1022 30.18 851 25.13 7.7 45.8 54 -0.9 30.4
08:50 1022 30.18 851 25.13 7.5 45.5 56 -0.7 30.7
08:55 1022 30.18 851 25.13 7.5 45.5 56 -0.8 30.6
09:00 1022 30.18 851 25.13 7.5 45.6 55 -1 30.2
09:05 1022 30.18 851 25.13 7.9 46.3 52 -1.4 29.6
09:10 1022 30.18 852 25.16 8.3 46.9 50 -1.5 29.3
09:15 1022 30.18 852 25.16 7.6 45.7 53 -1.3 29.6
09:20 1022 30.18 852 25.16 7.5 45.6 53 -1.4 29.6
09:25 1022 30.18 852 25.16 7.8 46 52 -1.4 29.5
09:30 1022 30.18 852 25.16 8.2 46.7 53 -0.8 30.6
09:35 1023 30.21 852 25.16 8.4 47.2 49 -1.7 28.9
09:40 1023 30.21 852 25.16 8.7 47.7 49 -1.4 29.6
09:45 1023 30.21 852 25.16 8.9 48 46 -2.1 28.3
09:50 1023 30.21 852 25.16 9.6 49.3 43 -2.2 28
09:55 1023 30.21 852 25.16 9.6 49.3 44 -2.1 28.2
10:00 1023 30.21 852 25.16 9.7 49.5 45 -1.6 29.1
10:05 1023 30.21 852 25.16 9.8 49.7 41 -2.7 27.1
10:10 1023 30.21 852 25.16 10 49.9 42 -2.4 27.6
10:15 1023 30.21 852 25.16 9.6 49.3 43 -2.2 28
10:20 1023 30.21 852 25.16 8.9 48.1 44 -2.5 27.5
10:25 1023 30.21 852 25.16 9.3 48.8 44 -2.2 28
10:30 1023 30.21 852 25.16 8.8 47.9 46 -2.1 28.3
10:35 1023 30.21 852 25.16 8.7 47.7 46 -2.2 28
10:40 1023 30.21 852 25.16 9.5 49 39 -3.7 25.4
10:45 1023 30.21 852 25.16 10.9 51.7 37 -3.1 26.4
10:50 1023 30.21 852 25.16 10.8 51.4 36 -3.6 25.5
10:55 1023 30.21 852 25.16 10.4 50.8 35 -4.2 24.4
11:00 1023 30.21 852 25.16 10.7 51.3 35 -4.1 24.5
11:05 1023 30.21 852 25.16 10.7 51.2 39 -2.7 27.2
11:10 1023 30.21 852 25.16 10.2 50.3 40 -2.9 26.8
11:15 1023 30.21 852 25.16 9.8 49.6 40 -3.3 26
11:20 1023 30.21 852 25.16 9.7 49.4 40 -3.1 26.4
11:25 1023 30.21 852 25.16 9.4 48.8 39 -3.7 25.3
11:30 1023 30.21 852 25.16 9.4 49 40 -3.5 25.8
11:35 1023 30.21 852 25.16 9.9 49.7 37 -4 24.9
11:40 1023 30.21 852 25.16 10.2 50.3 36 -4.3 24.2
11:45 1023 30.21 852 25.16 10.9 51.6 33 -4.7 23.6
11:50 1023 30.21 852 25.16 11.5 52.8 33 -4.1 24.6
11:55 1023 30.21 852 25.16 11.8 53.3 33 -3.7 25.3
12:00 1023 30.21 852 25.16 11.5 52.6 34 -3.8 25.2
12:05 1023 30.21 852 25.16 11.2 52.2 35 -3.6 25.5
12:10 1023 30.21 852 25.16 11.1 52.1 33 -4.6 23.8
12:15 1023 30.21 852 25.16 11.3 52.4 31 -5.1 22.8
12:20 1023 30.21 852 25.16 11.7 53 32 -4.6 23.8
12:25 1023 30.21 852 25.16 11.7 53.1 30 -5.4 22.3
12:30 1023 30.21 852 25.16 11.9 53.3 31 -4.6 23.8
12:35 1023 30.21 852 25.16 11.9 53.3 31 -4.6 23.7
12:40 1023 30.21 852 25.16 11.9 53.4 31 -4.8 23.4
12:45 1023 30.21 852 25.16 12.1 53.8 31 -4.7 23.6
12:50 1023 30.21 852 25.16 12.2 54 30 -4.6 23.7
12:55 1023 30.21 852 25.16 12.5 54.4 28 -5.4 22.3
13:00 1023 30.21 852 25.16 12 53.5 28 -5.8 21.5
13:05 1023 30.21 852 25.16 12.6 54.7 27 -6 21.2
13:10 1023 30.21 852 25.16 13.1 55.6 26 -6.1 21
13:15 1023 30.21 852 25.16 12.9 55.3 26 -5.9 21.4
13:20 1023 30.21 852 25.16 13 55.5 26 -6.1 21
13:25 1023 30.21 852 25.16 12.9 55.2 26 -6.4 20.6
13:30 1023 30.21 852 25.16 12.3 54.2 28 -5.9 21.4
13:35 1023 30.21 852 25.16 12.2 53.9 27 -6.1 21
13:40 1023 30.21 852 25.16 12.6 54.7 26 -6.4 20.5
13:45 1023 30.21 852 25.16 12.9 55.2 26 -6.3 20.6
13:50 1023 30.21 852 25.16 13.7 56.7 23 -6.9 19.5
13:55 1023 30.21 852 25.16 14.4 57.9 25 -5.4 22.3
14:00 1023 30.21 852 25.16 13.5 56.4 24 -6.5 20.2
14:05 1023 30.21 852 25.16 14.1 57.3 23 -6.5 20.3
14:10 1023 30.21 852 25.16 13.7 56.7 25 -6 21.3
14:15 1023 30.21 852 25.16 13.8 56.8 24 -6.6 20.1
14:20 1023 30.21 852 25.16 14 57.3 22 -7 19.4
14:25 1023 30.21 852 25.16 13.9 56.9 25 -5.8 21.6
14:30 1023 30.21 852 25.16 13.9 57 24 -6.6 20.2
14:35 1023 30.21 852 25.16 13.3 55.9 25 -6.3 20.6
14:40 1023 30.21 852 25.16 13.8 56.9 25 -5.6 22
14:45 1023 30.21 852 25.16 14.3 57.8 23 -6.2 20.8
14:50 1023 30.21 852 25.16 14.4 57.9 23 -6.3 20.7
14:55 1023 30.21 852 25.16 14.8 58.7 22 -6.7 19.9
15:00 1023 30.21 852 25.16 14.7 58.5 23 -6.2 20.9
15:05 1023 30.21 852 25.16 14.4 57.9 24 -6.1 21.1
15:10 1023 30.21 852 25.16 13.6 56.5 25 -5.8 21.6
15:15 1023 30.21 852 25.16 13.1 55.6 24 -6.9 19.6
15:20 1023 30.21 852 25.16 13.4 56.1 24 -6.8 19.8
15:25 1023 30.21 852 25.16 14.6 58.3 23 -6.3 20.7
15:30 1023 30.21 852 25.16 14.6 58.2 24 -5.6 21.9
15:35 1023 30.21 852 25.16 15.1 59.2 21 -6.9 19.6
15:40 1023 30.21 852 25.16 15.5 59.9 22 -6.1 21
15:45 1023 30.21 852 25.16 14.9 58.8 24 -5.4 22.3
15:50 1023 30.21 852 25.16 15.1 59.1 22 -6.1 20.9
15:55 1023 30.21 852 25.16 15.2 59.3 23 -5.9 21.4
16:00 1023 30.21 852 25.16 14.7 58.4 23 -6 21.1
16:05 1023 30.21 852 25.16 14.8 58.6 23 -6.2 20.9
16:10 1022 30.18 852 25.16 13.6 56.5 24 -6.3 20.6
16:15 1022 30.18 852 25.16 14 57.2 23 -6.8 19.7
16:20 1022 30.18 852 25.16 15.3 59.6 20 -7.7 18.2
16:25 1022 30.18 852 25.16 15.7 60.3 22 -6.1 21
16:30 1022 30.18 852 25.16 15.2 59.3 22 -6.4 20.4
16:35 1022 30.18 851 25.13 15.4 59.8 21 -6.7 19.9
16:40 1022 30.18 851 25.13 15.3 59.5 21 -6.9 19.5
16:45 1022 30.18 851 25.13 15.4 59.7 21 -6.8 19.7
16:50 1022 30.18 851 25.13 15.2 59.3 21 -7 19.4
16:55 1022 30.18 851 25.13 15.2 59.4 21 -7.2 19.1
17:00 1022 30.18 851 25.13 15.4 59.7 21 -6.7 20
17:05 1022 30.18 851 25.13 15.2 59.3 21 -6.8 19.8
17:10 1022 30.18 851 25.13 15 59 22 -6.6 20.2
17:15 1022 30.18 851 25.13 14.9 58.8 22 -6.8 19.7
17:20 1022 30.18 851 25.13 15 59 22 -6.6 20.2
17:25 1022 30.18 851 25.13 15 59 21 -7.2 19
17:30 1022 30.18 851 25.13 15.3 59.5 22 -6.3 20.6
17:35 1022 30.18 851 25.13 15.6 60 21 -6.7 20
17:40 1022 30.18 851 25.13 15.7 60.3 21 -6.7 19.9
17:45 1022 30.18 851 25.13 14.7 58.5 22 -6.6 20.2
17:50 1022 30.18 851 25.13 14.7 58.5 22 -6.7 19.9
17:55 1022 30.18 851 25.13 15.1 59.2 20 -7.4 18.8
18:00 1022 30.18 851 25.13 15.2 59.4 22 -6.5 20.3
18:05 1022 30.18 851 25.13 14.8 58.7 22 -6.8 19.7
18:10 1022 30.18 851 25.13 14.5 58 21 -7.4 18.8
18:15 1022 30.18 851 25.13 14 57.3 23 -6.9 19.6
18:20 1022 30.18 851 25.13 14.1 57.3 23 -6.9 19.5
18:25 1022 30.18 851 25.13 14.2 57.6 22 -6.9 19.6
18:30 1022 30.18 851 25.13 14.7 58.4 21 -7.1 19.2
18:35 1022 30.18 851 25.13 14.6 58.3 22 -6.8 19.7
18:40 1022 30.18 851 25.13 14.5 58.2 22 -7 19.3
18:45 1022 30.18 851 25.13 14.8 58.7 21 -7 19.4
18:50 1022 30.18 851 25.13 14.6 58.3 22 -7 19.4
18:55 1022 30.18 851 25.13 14.7 58.4 22 -6.6 20.1
19:00 1022 30.18 851 25.13 14.8 58.6 22 -6.5 20.2
19:05 1022 30.18 851 25.13 14.8 58.6 22 -6.6 20.2
19:10 1022 30.18 851 25.13 14.2 57.6 23 -6.6 20.2
19:15 1022 30.18 851 25.13 13.8 56.8 23 -6.7 19.9
19:20 1022 30.18 851 25.13 13.3 56 24 -6.7 20
19:25 1022 30.18 851 25.13 13.1 55.6 24 -6.8 19.7
19:30 1022 30.18 851 25.13 13.1 55.7 24 -6.8 19.7
19:35 1022 30.18 851 25.13 13.2 55.7 24 -6.8 19.7
19:40 1022 30.18 851 25.13 13.1 55.6 25 -6.6 20.1
19:45 1022 30.18 851 25.13 13 55.4 25 -6.4 20.6
19:50 1022 30.18 851 25.13 13 55.3 26 -6.2 20.9
19:55 1022 30.18 851 25.13 13 55.4 25 -6.3 20.6
20:00 1022 30.18 851 25.13 12.9 55.1 25 -6.5 20.3
20:05 1022 30.18 851 25.13 12.8 55 26 -6.3 20.6
20:10 1022 30.18 851 25.13 12.7 54.9 26 -6.4 20.4
20:15 1022 30.18 851 25.13 12.7 54.8 25 -6.6 20.1
20:20 1022 30.18 851 25.13 12.6 54.7 26 -6.2 20.9
20:25 1022 30.18 852 25.16 12.5 54.6 27 -6.1 20.9
20:30 1022 30.18 852 25.16 12.4 54.4 27 -5.8 21.6
20:35 1022 30.18 852 25.16 12.3 54.1 28 -5.6 21.9
20:40 1022 30.18 852 25.16 12.1 53.8 29 -5.4 22.3
20:45 1022 30.18 852 25.16 11.9 53.5 29 -5.3 22.5
20:50 1022 30.18 852 25.16 11.8 53.3 30 -5.2 22.6
20:55 1022 30.18 852 25.16 11.8 53.2 31 -5 23.1
21:00 1023 30.21 852 25.16 11.7 53 30 -5.3 22.5
21:05 1023 30.21 852 25.16 11.7 53.1 28 -6.3 20.7
21:10 1023 30.21 852 25.16 11.9 53.4 29 -5.5 22.1
21:15 1023 30.21 852 25.16 11.5 52.7 37 -2.5 27.4
21:20 1023 30.21 852 25.16 10.1 50.2 42 -2.2 28.1
21:25 1023 30.21 852 25.16 9.5 49 44 -2.1 28.2
21:30 1023 30.21 852 25.16 9 48.3 48 -1.3 29.6
21:35 1023 30.21 852 25.16 8.3 46.9 51 -1.2 29.8
21:40 1023 30.21 852 25.16 8.3 46.9 45 -2.8 26.9
21:45 1023 30.21 852 25.16 8.4 47.1 48 -2 28.3
21:50 1023 30.21 852 25.16 8 46.4 50 -1.8 28.8
21:55 1023 30.21 852 25.16 7.7 45.9 51 -1.7 28.9
22:00 1023 30.21 852 25.16 7.5 45.5 51 -1.9 28.6
22:05 1023 30.21 852 25.16 7.4 45.3 52 -1.9 28.6
22:10 1023 30.21 853 25.19 7.3 45.1 52 -1.9 28.6
22:15 1023 30.21 853 25.19 7.2 45 52 -1.9 28.6
22:20 1024 30.24 853 25.19 7.1 44.8 53 -1.7 28.9
22:25 1024 30.24 853 25.19 6.7 44.1 54 -1.8 28.7
22:30 1024 30.24 853 25.19 6.6 43.9 54 -1.9 28.5
22:35 1024 30.24 853 25.19 6.4 43.6 56 -1.7 29
22:40 1024 30.24 853 25.19 6.4 43.5 54 -2.3 27.9
22:45 1024 30.24 853 25.19 6.6 43.8 54 -2 28.5
22:50 1024 30.24 853 25.19 6.9 44.5 52 -2.3 27.8
22:55 1024 30.24 853 25.19 7.5 45.4 52 -1.8 28.8
23:00 1024 30.24 853 25.19 7.5 45.5 54 -1.3 29.6
23:05 1024 30.24 853 25.19 7.5 45.5 54 -1.3 29.6
23:10 1024 30.24 853 25.19 7.5 45.5 55 -1 30.1
23:15 1024 30.24 853 25.19 7.5 45.4 56 -0.8 30.5
23:20 1024 30.24 853 25.19 7.3 45.2 57 -0.7 30.8
23:25 1024 30.24 853 25.19 7.2 44.9 58 -0.5 31.2
23:30 1024 30.24 853 25.19 7 44.6 60 -0.1 31.8
23:35 1024 30.24 853 25.19 6.8 44.3 62 0.1 32.1
23:40 1024 30.24 853 25.19 6.7 44.1 63 0.1 32.2
23:45 1024 30.24 853 25.19 6.6 43.9 63 0.1 32.3
23:50 1024 30.24 853 25.19 6.5 43.7 65 0.3 32.6
23:55 1024 30.24 853 25.19 6.4 43.6 66 0.6 33
24:00 1024 30.24 853 25.19 6.3 43.3 67 0.6 33.1